Eagle (EGE/KEGE)

Information

Location
Eagle, CO
Local Time
20:25 / 8:25 pm
GMT Time
02:25 / 2:25 am
Gates
Unassigned
No FAA reported delays
METAR KEGE 280150Z 27014KT 10SM OVC075 09/M00 A2985
TAF KEGE 280203Z 2802/2824 27011KT P6SM VCSH OVC070 FM280300 VRB04KT P6SM VCSH BKN070 FM280800 VRB04KT P6SM -SHSN BKN025 FM281100 25006KT 3SM -SHRASN OVC020 FM281500 VRB04KT 3SM -SHRA OVC030 AMD LTD TO CLD VIS AND WIND 2805/2813
  • No charts available